sensor_id;sensor_type;location;lat;lon;timestamp;temperature;humidity
27266;DHT22;14766;51.380;13.762;2024-01-25T00:01:52;11.10;61.60
27266;DHT22;14766;51.380;13.762;2024-01-25T00:04:21;11.10;61.50
27266;DHT22;14766;51.380;13.762;2024-01-25T00:06:48;11.10;61.30
27266;DHT22;14766;51.380;13.762;2024-01-25T00:09:16;11.00;60.80
27266;DHT22;14766;51.380;13.762;2024-01-25T00:11:43;11.10;61.10
27266;DHT22;14766;51.380;13.762;2024-01-25T00:14:10;11.10;61.50
27266;DHT22;14766;51.380;13.762;2024-01-25T00:16:42;11.00;61.50
27266;DHT22;14766;51.380;13.762;2024-01-25T00:19:09;11.10;61.50
27266;DHT22;14766;51.380;13.762;2024-01-25T00:21:42;11.00;61.60
27266;DHT22;14766;51.380;13.762;2024-01-25T00:24:11;11.10;61.60
27266;DHT22;14766;51.380;13.762;2024-01-25T00:26:39;11.10;61.80
27266;DHT22;14766;51.380;13.762;2024-01-25T00:29:06;11.10;61.50
27266;DHT22;14766;51.380;13.762;2024-01-25T00:31:34;11.10;61.50
27266;DHT22;14766;51.380;13.762;2024-01-25T00:34:02;11.10;61.30
27266;DHT22;14766;51.380;13.762;2024-01-25T00:36:30;11.10;61.30
27266;DHT22;14766;51.380;13.762;2024-01-25T00:38:57;11.00;61.40
27266;DHT22;14766;51.380;13.762;2024-01-25T00:41:25;11.10;61.30
27266;DHT22;14766;51.380;13.762;2024-01-25T00:43:53;11.00;61.20
27266;DHT22;14766;51.380;13.762;2024-01-25T00:46:20;11.10;60.90
27266;DHT22;14766;51.380;13.762;2024-01-25T00:48:48;11.00;61.10
27266;DHT22;14766;51.380;13.762;2024-01-25T00:51:21;11.10;60.90
27266;DHT22;14766;51.380;13.762;2024-01-25T00:53:49;11.10;61.10
27266;DHT22;14766;51.380;13.762;2024-01-25T00:56:16;11.10;61.10
27266;DHT22;14766;51.380;13.762;2024-01-25T00:58:43;11.10;61.00
27266;DHT22;14766;51.380;13.762;2024-01-25T01:01:11;11.10;60.80
27266;DHT22;14766;51.380;13.762;2024-01-25T01:03:38;11.10;60.60
27266;DHT22;14766;51.380;13.762;2024-01-25T01:06:06;11.10;60.70
27266;DHT22;14766;51.380;13.762;2024-01-25T01:08:34;11.10;60.80
27266;DHT22;14766;51.380;13.762;2024-01-25T01:11:01;11.10;60.70
27266;DHT22;14766;51.380;13.762;2024-01-25T01:13:28;11.10;60.70
27266;DHT22;14766;51.380;13.762;2024-01-25T01:15:57;11.10;60.80
27266;DHT22;14766;51.380;13.762;2024-01-25T01:18:24;11.20;60.90
27266;DHT22;14766;51.380;13.762;2024-01-25T01:20:51;11.20;60.90
27266;DHT22;14766;51.380;13.762;2024-01-25T01:23:18;11.20;60.90
27266;DHT22;14766;51.380;13.762;2024-01-25T01:25:46;11.20;60.90
27266;DHT22;14766;51.380;13.762;2024-01-25T01:28:13;11.20;60.90
27266;DHT22;14766;51.380;13.762;2024-01-25T01:30:40;11.20;60.90
27266;DHT22;14766;51.380;13.762;2024-01-25T01:33:09;11.20;60.80
27266;DHT22;14766;51.380;13.762;2024-01-25T01:35:36;11.20;60.80
27266;DHT22;14766;51.380;13.762;2024-01-25T01:38:04;11.20;60.90
27266;DHT22;14766;51.380;13.762;2024-01-25T01:40:31;11.20;60.90
27266;DHT22;14766;51.380;13.762;2024-01-25T01:42:59;11.20;61.00
27266;DHT22;14766;51.380;13.762;2024-01-25T01:45:29;11.20;61.00
27266;DHT22;14766;51.380;13.762;2024-01-25T01:47:56;11.20;61.20
27266;DHT22;14766;51.380;13.762;2024-01-25T01:50:24;11.20;61.30
27266;DHT22;14766;51.380;13.762;2024-01-25T01:52:52;11.20;61.20
27266;DHT22;14766;51.380;13.762;2024-01-25T01:55:21;11.20;61.20
27266;DHT22;14766;51.380;13.762;2024-01-25T01:57:48;11.20;61.20
27266;DHT22;14766;51.380;13.762;2024-01-25T02:00:16;11.20;61.10
27266;DHT22;14766;51.380;13.762;2024-01-25T02:02:44;11.20;60.80
27266;DHT22;14766;51.380;13.762;2024-01-25T02:05:12;11.20;60.40
27266;DHT22;14766;51.380;13.762;2024-01-25T02:07:40;11.20;60.40
27266;DHT22;14766;51.380;13.762;2024-01-25T02:10:09;11.20;60.00
27266;DHT22;14766;51.380;13.762;2024-01-25T02:12:37;11.20;59.80
27266;DHT22;14766;51.380;13.762;2024-01-25T02:15:05;11.20;59.40
27266;DHT22;14766;51.380;13.762;2024-01-25T02:17:32;11.20;59.40
27266;DHT22;14766;51.380;13.762;2024-01-25T02:20:00;11.20;59.10
27266;DHT22;14766;51.380;13.762;2024-01-25T02:22:29;11.20;58.70
27266;DHT22;14766;51.380;13.762;2024-01-25T02:24:56;11.10;58.80
27266;DHT22;14766;51.380;13.762;2024-01-25T02:27:24;11.10;58.40
27266;DHT22;14766;51.380;13.762;2024-01-25T02:29:51;11.20;58.80
27266;DHT22;14766;51.380;13.762;2024-01-25T02:32:18;11.10;59.70
27266;DHT22;14766;51.380;13.762;2024-01-25T02:34:45;11.10;60.00
27266;DHT22;14766;51.380;13.762;2024-01-25T02:37:12;11.10;60.30
27266;DHT22;14766;51.380;13.762;2024-01-25T02:39:41;11.10;60.30
27266;DHT22;14766;51.380;13.762;2024-01-25T02:42:08;11.10;60.60
27266;DHT22;14766;51.380;13.762;2024-01-25T02:44:35;11.10;61.50
27266;DHT22;14766;51.380;13.762;2024-01-25T02:47:02;11.10;61.60
27266;DHT22;14766;51.380;13.762;2024-01-25T02:49:29;11.10;61.80
27266;DHT22;14766;51.380;13.762;2024-01-25T02:51:57;11.10;62.10
27266;DHT22;14766;51.380;13.762;2024-01-25T02:54:24;11.10;62.10
27266;DHT22;14766;51.380;13.762;2024-01-25T02:56:51;11.00;61.50
27266;DHT22;14766;51.380;13.762;2024-01-25T02:59:18;11.00;61.50
27266;DHT22;14766;51.380;13.762;2024-01-25T03:01:46;11.00;61.10
27266;DHT22;14766;51.380;13.762;2024-01-25T03:04:13;11.00;61.20
27266;DHT22;14766;51.380;13.762;2024-01-25T03:06:40;11.00;61.10
27266;DHT22;14766;51.380;13.762;2024-01-25T03:09:08;10.90;61.10
27266;DHT22;14766;51.380;13.762;2024-01-25T03:11:35;10.90;60.90
27266;DHT22;14766;51.380;13.762;2024-01-25T03:14:02;10.90;60.80
27266;DHT22;14766;51.380;13.762;2024-01-25T03:16:29;10.90;60.70
27266;DHT22;14766;51.380;13.762;2024-01-25T03:18:56;10.90;60.70
27266;DHT22;14766;51.380;13.762;2024-01-25T03:21:24;10.90;60.90
27266;DHT22;14766;51.380;13.762;2024-01-25T03:23:51;10.90;61.40
27266;DHT22;14766;51.380;13.762;2024-01-25T03:26:18;10.90;60.90
27266;DHT22;14766;51.380;13.762;2024-01-25T03:28:45;10.90;60.70
27266;DHT22;14766;51.380;13.762;2024-01-25T03:31:12;10.90;60.70
27266;DHT22;14766;51.380;13.762;2024-01-25T03:33:39;10.90;60.60
27266;DHT22;14766;51.380;13.762;2024-01-25T03:36:07;10.90;61.50
27266;DHT22;14766;51.380;13.762;2024-01-25T03:38:34;10.90;60.40
27266;DHT22;14766;51.380;13.762;2024-01-25T03:41:01;10.90;60.30
27266;DHT22;14766;51.380;13.762;2024-01-25T03:43:28;10.90;60.50
27266;DHT22;14766;51.380;13.762;2024-01-25T03:46:08;10.90;60.10
27266;DHT22;14766;51.380;13.762;2024-01-25T03:48:35;10.90;60.00
27266;DHT22;14766;51.380;13.762;2024-01-25T03:51:03;10.90;59.90
27266;DHT22;14766;51.380;13.762;2024-01-25T03:53:30;10.90;60.10
27266;DHT22;14766;51.380;13.762;2024-01-25T03:55:57;10.90;60.00
27266;DHT22;14766;51.380;13.762;2024-01-25T03:58:24;10.90;60.00
27266;DHT22;14766;51.380;13.762;2024-01-25T04:00:52;10.80;59.60
27266;DHT22;14766;51.380;13.762;2024-01-25T04:03:20;10.80;59.50
27266;DHT22;14766;51.380;13.762;2024-01-25T04:05:48;10.80;59.50
27266;DHT22;14766;51.380;13.762;2024-01-25T04:08:15;10.80;59.50
27266;DHT22;14766;51.380;13.762;2024-01-25T04:10:42;10.80;59.30
27266;DHT22;14766;51.380;13.762;2024-01-25T04:13:09;10.80;59.20
27266;DHT22;14766;51.380;13.762;2024-01-25T04:15:36;10.80;59.20
27266;DHT22;14766;51.380;13.762;2024-01-25T04:18:03;10.80;59.20
27266;DHT22;14766;51.380;13.762;2024-01-25T04:20:30;10.80;59.30
27266;DHT22;14766;51.380;13.762;2024-01-25T04:22:59;10.80;59.10
27266;DHT22;14766;51.380;13.762;2024-01-25T04:25:27;10.80;59.30
27266;DHT22;14766;51.380;13.762;2024-01-25T04:27:56;10.90;59.30
27266;DHT22;14766;51.380;13.762;2024-01-25T04:30:23;10.90;59.20
27266;DHT22;14766;51.380;13.762;2024-01-25T04:32:51;10.90;59.10
27266;DHT22;14766;51.380;13.762;2024-01-25T04:35:18;10.90;59.10
27266;DHT22;14766;51.380;13.762;2024-01-25T04:37:45;10.90;59.10
27266;DHT22;14766;51.380;13.762;2024-01-25T04:40:12;10.90;59.00
27266;DHT22;14766;51.380;13.762;2024-01-25T04:42:40;10.90;58.80
27266;DHT22;14766;51.380;13.762;2024-01-25T04:45:07;10.80;58.90
27266;DHT22;14766;51.380;13.762;2024-01-25T04:47:36;10.90;59.00
27266;DHT22;14766;51.380;13.762;2024-01-25T04:50:04;10.90;58.80
27266;DHT22;14766;51.380;13.762;2024-01-25T04:52:31;10.90;58.70
27266;DHT22;14766;51.380;13.762;2024-01-25T04:54:59;10.80;58.60
27266;DHT22;14766;51.380;13.762;2024-01-25T04:57:26;10.80;58.60
27266;DHT22;14766;51.380;13.762;2024-01-25T04:59:53;10.80;59.40
27266;DHT22;14766;51.380;13.762;2024-01-25T05:02:20;10.80;58.60
27266;DHT22;14766;51.380;13.762;2024-01-25T05:04:47;10.70;58.70
27266;DHT22;14766;51.380;13.762;2024-01-25T05:07:15;10.70;58.80
27266;DHT22;14766;51.380;13.762;2024-01-25T05:09:43;10.70;58.80
27266;DHT22;14766;51.380;13.762;2024-01-25T05:12:10;10.70;58.90
27266;DHT22;14766;51.380;13.762;2024-01-25T05:14:38;10.70;59.00
27266;DHT22;14766;51.380;13.762;2024-01-25T05:17:05;10.70;58.90
27266;DHT22;14766;51.380;13.762;2024-01-25T05:19:32;10.70;59.00
27266;DHT22;14766;51.380;13.762;2024-01-25T05:21:59;10.70;59.00
27266;DHT22;14766;51.380;13.762;2024-01-25T05:24:28;10.60;59.10
27266;DHT22;14766;51.380;13.762;2024-01-25T05:26:55;10.60;59.20
27266;DHT22;14766;51.380;13.762;2024-01-25T05:29:23;10.60;59.20
27266;DHT22;14766;51.380;13.762;2024-01-25T05:31:50;10.60;59.30
27266;DHT22;14766;51.380;13.762;2024-01-25T05:34:17;10.60;59.10
27266;DHT22;14766;51.380;13.762;2024-01-25T05:36:44;10.60;59.30
27266;DHT22;14766;51.380;13.762;2024-01-25T05:39:13;10.60;59.20
27266;DHT22;14766;51.380;13.762;2024-01-25T05:41:40;10.60;59.40
27266;DHT22;14766;51.380;13.762;2024-01-25T05:44:12;10.60;59.30
27266;DHT22;14766;51.380;13.762;2024-01-25T05:46:39;10.50;59.40
27266;DHT22;14766;51.380;13.762;2024-01-25T05:49:07;10.60;59.60
27266;DHT22;14766;51.380;13.762;2024-01-25T05:51:34;10.60;59.60
27266;DHT22;14766;51.380;13.762;2024-01-25T05:54:03;10.50;59.70
27266;DHT22;14766;51.380;13.762;2024-01-25T05:56:30;10.50;59.70
27266;DHT22;14766;51.380;13.762;2024-01-25T05:58:57;10.50;60.70
27266;DHT22;14766;51.380;13.762;2024-01-25T06:01:24;10.50;60.00
27266;DHT22;14766;51.380;13.762;2024-01-25T06:03:52;10.50;60.00
27266;DHT22;14766;51.380;13.762;2024-01-25T06:06:20;10.50;60.00
27266;DHT22;14766;51.380;13.762;2024-01-25T06:08:51;10.50;60.00
27266;DHT22;14766;51.380;13.762;2024-01-25T06:11:37;10.50;60.20
27266;DHT22;14766;51.380;13.762;2024-01-25T06:14:08;10.50;60.40
27266;DHT22;14766;51.380;13.762;2024-01-25T06:16:36;10.50;60.50
27266;DHT22;14766;51.380;13.762;2024-01-25T06:19:04;10.40;60.70
27266;DHT22;14766;51.380;13.762;2024-01-25T06:21:31;10.40;61.00
27266;DHT22;14766;51.380;13.762;2024-01-25T06:24:07;10.50;61.10
27266;DHT22;14766;51.380;13.762;2024-01-25T06:26:36;10.50;61.90
27266;DHT22;14766;51.380;13.762;2024-01-25T06:29:03;10.40;60.90
27266;DHT22;14766;51.380;13.762;2024-01-25T06:31:29;10.40;61.00
27266;DHT22;14766;51.380;13.762;2024-01-25T06:33:56;10.40;61.20
27266;DHT22;14766;51.380;13.762;2024-01-25T06:36:25;10.50;61.40
27266;DHT22;14766;51.380;13.762;2024-01-25T06:38:53;10.40;61.20
27266;DHT22;14766;51.380;13.762;2024-01-25T06:41:21;10.40;61.40
27266;DHT22;14766;51.380;13.762;2024-01-25T06:43:48;10.50;61.60
27266;DHT22;14766;51.380;13.762;2024-01-25T06:46:15;10.40;61.40
27266;DHT22;14766;51.380;13.762;2024-01-25T06:48:42;10.40;61.60
27266;DHT22;14766;51.380;13.762;2024-01-25T06:51:10;10.40;61.90
27266;DHT22;14766;51.380;13.762;2024-01-25T06:53:37;10.40;61.90
27266;DHT22;14766;51.380;13.762;2024-01-25T06:56:04;10.40;62.00
27266;DHT22;14766;51.380;13.762;2024-01-25T06:58:31;10.40;62.00
27266;DHT22;14766;51.380;13.762;2024-01-25T07:00:59;10.50;61.80
27266;DHT22;14766;51.380;13.762;2024-01-25T07:03:28;10.40;61.70
27266;DHT22;14766;51.380;13.762;2024-01-25T07:05:55;10.40;61.60
27266;DHT22;14766;51.380;13.762;2024-01-25T07:08:22;10.40;61.70
27266;DHT22;14766;51.380;13.762;2024-01-25T07:10:50;10.40;61.90
27266;DHT22;14766;51.380;13.762;2024-01-25T07:13:18;10.40;61.90
27266;DHT22;14766;51.380;13.762;2024-01-25T07:15:45;10.40;61.90
27266;DHT22;14766;51.380;13.762;2024-01-25T07:18:12;10.40;61.70
27266;DHT22;14766;51.380;13.762;2024-01-25T07:20:39;10.40;61.90
27266;DHT22;14766;51.380;13.762;2024-01-25T07:23:07;10.40;61.90
27266;DHT22;14766;51.380;13.762;2024-01-25T07:25:34;10.40;61.90
27266;DHT22;14766;51.380;13.762;2024-01-25T07:28:01;10.40;62.00
27266;DHT22;14766;51.380;13.762;2024-01-25T07:30:30;10.40;62.00
27266;DHT22;14766;51.380;13.762;2024-01-25T07:32:57;10.40;61.90
27266;DHT22;14766;51.380;13.762;2024-01-25T07:35:24;10.40;62.00
27266;DHT22;14766;51.380;13.762;2024-01-25T07:37:51;10.40;62.00
27266;DHT22;14766;51.380;13.762;2024-01-25T07:40:18;10.40;62.00
27266;DHT22;14766;51.380;13.762;2024-01-25T07:42:49;10.40;62.10
27266;DHT22;14766;51.380;13.762;2024-01-25T07:45:16;10.40;62.00
27266;DHT22;14766;51.380;13.762;2024-01-25T07:47:43;10.40;62.00
27266;DHT22;14766;51.380;13.762;2024-01-25T07:50:11;10.40;61.90
27266;DHT22;14766;51.380;13.762;2024-01-25T07:52:39;10.40;62.00
27266;DHT22;14766;51.380;13.762;2024-01-25T07:55:06;10.40;62.20
27266;DHT22;14766;51.380;13.762;2024-01-25T07:57:34;10.40;62.00
27266;DHT22;14766;51.380;13.762;2024-01-25T08:00:01;10.40;61.70
27266;DHT22;14766;51.380;13.762;2024-01-25T08:02:30;10.40;62.50
27266;DHT22;14766;51.380;13.762;2024-01-25T08:04:58;10.40;61.70
27266;DHT22;14766;51.380;13.762;2024-01-25T08:07:25;10.40;61.80
27266;DHT22;14766;51.380;13.762;2024-01-25T08:09:52;10.40;61.70
27266;DHT22;14766;51.380;13.762;2024-01-25T08:12:20;10.40;61.80
27266;DHT22;14766;51.380;13.762;2024-01-25T08:14:47;10.40;61.60
27266;DHT22;14766;51.380;13.762;2024-01-25T08:17:14;10.40;61.70
27266;DHT22;14766;51.380;13.762;2024-01-25T08:19:41;10.50;61.80
27266;DHT22;14766;51.380;13.762;2024-01-25T08:22:09;10.40;61.60
27266;DHT22;14766;51.380;13.762;2024-01-25T08:24:36;10.40;61.20
27266;DHT22;14766;51.380;13.762;2024-01-25T08:27:04;10.40;61.40
27266;DHT22;14766;51.380;13.762;2024-01-25T08:29:31;10.40;61.40
27266;DHT22;14766;51.380;13.762;2024-01-25T08:32:00;10.40;61.40
27266;DHT22;14766;51.380;13.762;2024-01-25T08:34:28;10.40;61.60
27266;DHT22;14766;51.380;13.762;2024-01-25T08:36:55;10.40;61.60
27266;DHT22;14766;51.380;13.762;2024-01-25T08:39:22;10.40;61.60
27266;DHT22;14766;51.380;13.762;2024-01-25T08:41:50;10.40;61.40
27266;DHT22;14766;51.380;13.762;2024-01-25T08:44:20;10.40;61.50
27266;DHT22;14766;51.380;13.762;2024-01-25T08:46:47;10.50;61.70
27266;DHT22;14766;51.380;13.762;2024-01-25T08:49:14;10.50;61.50
27266;DHT22;14766;51.380;13.762;2024-01-25T08:51:42;10.40;61.20
27266;DHT22;14766;51.380;13.762;2024-01-25T08:54:09;10.50;61.20
27266;DHT22;14766;51.380;13.762;2024-01-25T08:56:36;10.40;60.80
27266;DHT22;14766;51.380;13.762;2024-01-25T08:59:03;10.40;60.60
27266;DHT22;14766;51.380;13.762;2024-01-25T09:01:30;10.40;60.90
27266;DHT22;14766;51.380;13.762;2024-01-25T09:03:58;10.40;61.20
27266;DHT22;14766;51.380;13.762;2024-01-25T09:06:30;10.40;61.20
27266;DHT22;14766;51.380;13.762;2024-01-25T09:08:57;10.40;62.00
27266;DHT22;14766;51.380;13.762;2024-01-25T09:11:25;10.50;61.30
27266;DHT22;14766;51.380;13.762;2024-01-25T09:13:54;10.50;61.10
27266;DHT22;14766;51.380;13.762;2024-01-25T09:16:21;10.50;61.20
27266;DHT22;14766;51.380;13.762;2024-01-25T09:18:49;10.50;61.20
27266;DHT22;14766;51.380;13.762;2024-01-25T09:21:17;10.60;61.10
27266;DHT22;14766;51.380;13.762;2024-01-25T09:23:44;10.60;60.80
27266;DHT22;14766;51.380;13.762;2024-01-25T09:26:11;10.60;60.70
27266;DHT22;14766;51.380;13.762;2024-01-25T09:28:38;10.70;60.60
27266;DHT22;14766;51.380;13.762;2024-01-25T09:31:05;10.70;60.40
27266;DHT22;14766;51.380;13.762;2024-01-25T09:33:33;10.70;60.20
27266;DHT22;14766;51.380;13.762;2024-01-25T09:36:01;10.80;59.90
27266;DHT22;14766;51.380;13.762;2024-01-25T09:38:29;10.80;59.70
27266;DHT22;14766;51.380;13.762;2024-01-25T09:40:58;10.80;59.70
27266;DHT22;14766;51.380;13.762;2024-01-25T09:43:27;10.90;59.80
27266;DHT22;14766;51.380;13.762;2024-01-25T09:45:54;10.90;60.00
27266;DHT22;14766;51.380;13.762;2024-01-25T09:48:22;11.10;59.80
27266;DHT22;14766;51.380;13.762;2024-01-25T09:50:49;11.30;59.80
27266;DHT22;14766;51.380;13.762;2024-01-25T09:53:22;11.60;59.10
27266;DHT22;14766;51.380;13.762;2024-01-25T09:56:00;11.90;58.60
27266;DHT22;14766;51.380;13.762;2024-01-25T09:58:41;12.20;57.40
27266;DHT22;14766;51.380;13.762;2024-01-25T10:01:11;12.40;56.40
27266;DHT22;14766;51.380;13.762;2024-01-25T10:03:42;12.60;55.90
27266;DHT22;14766;51.380;13.762;2024-01-25T10:06:11;12.60;55.80
27266;DHT22;14766;51.380;13.762;2024-01-25T10:08:42;12.70;55.20
27266;DHT22;14766;51.380;13.762;2024-01-25T10:11:10;12.80;54.90
27266;DHT22;14766;51.380;13.762;2024-01-25T10:13:47;12.80;54.90
27266;DHT22;14766;51.380;13.762;2024-01-25T10:16:18;12.80;54.60
27266;DHT22;14766;51.380;13.762;2024-01-25T10:18:47;12.80;54.50
27266;DHT22;14766;51.380;13.762;2024-01-25T10:21:17;12.70;54.60
27266;DHT22;14766;51.380;13.762;2024-01-25T10:23:45;12.70;54.70
27266;DHT22;14766;51.380;13.762;2024-01-25T10:26:13;12.80;54.90
27266;DHT22;14766;51.380;13.762;2024-01-25T10:28:41;12.90;55.20
27266;DHT22;14766;51.380;13.762;2024-01-25T10:31:09;13.10;54.80
27266;DHT22;14766;51.380;13.762;2024-01-25T10:33:38;13.20;54.20
27266;DHT22;14766;51.380;13.762;2024-01-25T10:36:08;13.20;53.30
27266;DHT22;14766;51.380;13.762;2024-01-25T10:38:38;13.20;53.40
27266;DHT22;14766;51.380;13.762;2024-01-25T10:41:05;13.20;53.40
27266;DHT22;14766;51.380;13.762;2024-01-25T10:43:34;13.10;53.40
27266;DHT22;14766;51.380;13.762;2024-01-25T10:46:02;13.00;53.60
27266;DHT22;14766;51.380;13.762;2024-01-25T10:48:31;13.00;53.70
27266;DHT22;14766;51.380;13.762;2024-01-25T10:50:59;13.00;54.00
27266;DHT22;14766;51.380;13.762;2024-01-25T10:53:34;13.00;54.00
27266;DHT22;14766;51.380;13.762;2024-01-25T10:56:02;13.00;54.00
27266;DHT22;14766;51.380;13.762;2024-01-25T10:58:33;13.00;53.50
27266;DHT22;14766;51.380;13.762;2024-01-25T11:01:09;12.90;53.40
27266;DHT22;14766;51.380;13.762;2024-01-25T11:03:42;12.80;54.10
27266;DHT22;14766;51.380;13.762;2024-01-25T11:06:13;12.80;54.60
27266;DHT22;14766;51.380;13.762;2024-01-25T11:08:41;12.90;54.50
27266;DHT22;14766;51.380;13.762;2024-01-25T11:11:12;13.00;54.50
27266;DHT22;14766;51.380;13.762;2024-01-25T11:13:41;13.20;54.30
27266;DHT22;14766;51.380;13.762;2024-01-25T11:16:17;13.40;54.10
27266;DHT22;14766;51.380;13.762;2024-01-25T11:18:54;13.70;53.00
27266;DHT22;14766;51.380;13.762;2024-01-25T11:21:43;13.90;52.40
27266;DHT22;14766;51.380;13.762;2024-01-25T11:24:16;14.20;51.70
27266;DHT22;14766;51.380;13.762;2024-01-25T11:26:44;14.30;50.50
27266;DHT22;14766;51.380;13.762;2024-01-25T11:29:18;14.40;50.60
27266;DHT22;14766;51.380;13.762;2024-01-25T11:31:46;14.50;50.70
27266;DHT22;14766;51.380;13.762;2024-01-25T11:34:14;14.50;50.50
27266;DHT22;14766;51.380;13.762;2024-01-25T11:36:44;14.50;50.30
27266;DHT22;14766;51.380;13.762;2024-01-25T11:39:13;14.50;50.20
27266;DHT22;14766;51.380;13.762;2024-01-25T11:41:42;14.60;50.40
27266;DHT22;14766;51.380;13.762;2024-01-25T11:44:10;14.50;50.10
27266;DHT22;14766;51.380;13.762;2024-01-25T11:46:38;14.50;50.10
27266;DHT22;14766;51.380;13.762;2024-01-25T11:49:06;14.50;50.20
27266;DHT22;14766;51.380;13.762;2024-01-25T11:51:36;14.40;50.00
27266;DHT22;14766;51.380;13.762;2024-01-25T11:54:03;14.30;50.30
27266;DHT22;14766;51.380;13.762;2024-01-25T11:56:37;14.20;50.30
27266;DHT22;14766;51.380;13.762;2024-01-25T11:59:09;14.00;50.40
27266;DHT22;14766;51.380;13.762;2024-01-25T12:01:37;13.80;50.80
27266;DHT22;14766;51.380;13.762;2024-01-25T12:04:06;13.60;51.00
27266;DHT22;14766;51.380;13.762;2024-01-25T12:06:35;13.50;51.60
27266;DHT22;14766;51.380;13.762;2024-01-25T12:09:07;13.30;52.20
27266;DHT22;14766;51.380;13.762;2024-01-25T12:11:35;13.20;52.70
27266;DHT22;14766;51.380;13.762;2024-01-25T12:14:02;13.20;52.80
27266;DHT22;14766;51.380;13.762;2024-01-25T12:16:29;13.10;53.00
27266;DHT22;14766;51.380;13.762;2024-01-25T12:19:00;13.00;53.10
27266;DHT22;14766;51.380;13.762;2024-01-25T12:21:27;13.00;53.50
27266;DHT22;14766;51.380;13.762;2024-01-25T12:23:54;13.00;53.40
27266;DHT22;14766;51.380;13.762;2024-01-25T12:26:21;12.90;53.80
27266;DHT22;14766;51.380;13.762;2024-01-25T12:28:48;12.90;54.00
27266;DHT22;14766;51.380;13.762;2024-01-25T12:31:16;12.90;54.00
27266;DHT22;14766;51.380;13.762;2024-01-25T12:33:44;12.90;54.20
27266;DHT22;14766;51.380;13.762;2024-01-25T12:36:12;13.00;54.20
27266;DHT22;14766;51.380;13.762;2024-01-25T12:38:39;13.00;54.20
27266;DHT22;14766;51.380;13.762;2024-01-25T12:41:06;13.00;54.00
27266;DHT22;14766;51.380;13.762;2024-01-25T12:43:34;13.00;53.70
27266;DHT22;14766;51.380;13.762;2024-01-25T12:46:02;13.00;53.60
27266;DHT22;14766;51.380;13.762;2024-01-25T12:48:47;13.00;53.50
27266;DHT22;14766;51.380;13.762;2024-01-25T12:51:15;13.00;53.40
27266;DHT22;14766;51.380;13.762;2024-01-25T12:53:42;13.00;53.40
27266;DHT22;14766;51.380;13.762;2024-01-25T12:56:10;12.90;53.40
27266;DHT22;14766;51.380;13.762;2024-01-25T12:58:37;12.90;53.50
27266;DHT22;14766;51.380;13.762;2024-01-25T13:01:04;12.90;53.70
27266;DHT22;14766;51.380;13.762;2024-01-25T13:03:33;12.80;53.50
27266;DHT22;14766;51.380;13.762;2024-01-25T13:06:05;12.80;53.20
27266;DHT22;14766;51.380;13.762;2024-01-25T13:08:32;12.70;53.20
27266;DHT22;14766;51.380;13.762;2024-01-25T13:11:00;12.70;53.50
27266;DHT22;14766;51.380;13.762;2024-01-25T13:13:27;12.60;53.70
27266;DHT22;14766;51.380;13.762;2024-01-25T13:15:54;12.60;53.80
27266;DHT22;14766;51.380;13.762;2024-01-25T13:18:21;12.60;54.00
27266;DHT22;14766;51.380;13.762;2024-01-25T13:20:49;12.50;53.90
27266;DHT22;14766;51.380;13.762;2024-01-25T13:23:16;12.40;54.10
27266;DHT22;14766;51.380;13.762;2024-01-25T13:25:43;12.40;54.20
27266;DHT22;14766;51.380;13.762;2024-01-25T13:28:10;12.30;54.40
27266;DHT22;14766;51.380;13.762;2024-01-25T13:30:37;12.30;54.40
27266;DHT22;14766;51.380;13.762;2024-01-25T13:33:04;12.30;54.60
27266;DHT22;14766;51.380;13.762;2024-01-25T13:35:32;12.30;54.70
27266;DHT22;14766;51.380;13.762;2024-01-25T13:37:59;12.20;54.80
27266;DHT22;14766;51.380;13.762;2024-01-25T13:40:28;12.20;55.00
27266;DHT22;14766;51.380;13.762;2024-01-25T13:42:55;12.20;55.10
27266;DHT22;14766;51.380;13.762;2024-01-25T13:45:23;12.20;55.20
27266;DHT22;14766;51.380;13.762;2024-01-25T13:47:50;12.20;55.20
27266;DHT22;14766;51.380;13.762;2024-01-25T13:50:18;12.20;55.00
27266;DHT22;14766;51.380;13.762;2024-01-25T13:52:45;12.10;55.00
27266;DHT22;14766;51.380;13.762;2024-01-25T13:55:12;12.10;55.40
27266;DHT22;14766;51.380;13.762;2024-01-25T13:57:39;12.10;55.60
27266;DHT22;14766;51.380;13.762;2024-01-25T14:00:06;12.10;55.60
27266;DHT22;14766;51.380;13.762;2024-01-25T14:02:34;12.10;55.60
27266;DHT22;14766;51.380;13.762;2024-01-25T14:05:02;12.10;55.50
27266;DHT22;14766;51.380;13.762;2024-01-25T14:07:29;12.10;55.40
27266;DHT22;14766;51.380;13.762;2024-01-25T14:09:56;12.00;55.60
27266;DHT22;14766;51.380;13.762;2024-01-25T14:12:24;12.00;55.60
27266;DHT22;14766;51.380;13.762;2024-01-25T14:14:51;12.00;55.70
27266;DHT22;14766;51.380;13.762;2024-01-25T14:17:19;12.00;55.70
27266;DHT22;14766;51.380;13.762;2024-01-25T14:19:48;12.00;55.90
27266;DHT22;14766;51.380;13.762;2024-01-25T14:22:16;12.00;55.90
27266;DHT22;14766;51.380;13.762;2024-01-25T14:24:47;12.00;55.60
27266;DHT22;14766;51.380;13.762;2024-01-25T14:27:14;11.90;55.30
27266;DHT22;14766;51.380;13.762;2024-01-25T14:29:41;11.90;55.40
27266;DHT22;14766;51.380;13.762;2024-01-25T14:32:08;11.80;55.40
27266;DHT22;14766;51.380;13.762;2024-01-25T14:34:38;11.80;55.60
27266;DHT22;14766;51.380;13.762;2024-01-25T14:37:07;11.80;55.80
27266;DHT22;14766;51.380;13.762;2024-01-25T14:39:36;11.70;55.80
27266;DHT22;14766;51.380;13.762;2024-01-25T14:42:12;11.70;56.00
27266;DHT22;14766;51.380;13.762;2024-01-25T14:44:43;11.60;56.00
27266;DHT22;14766;51.380;13.762;2024-01-25T14:47:10;11.60;56.20
27266;DHT22;14766;51.380;13.762;2024-01-25T14:49:39;11.60;56.50
27266;DHT22;14766;51.380;13.762;2024-01-25T14:52:06;11.50;56.30
27266;DHT22;14766;51.380;13.762;2024-01-25T14:54:33;11.50;56.10
27266;DHT22;14766;51.380;13.762;2024-01-25T14:57:00;11.40;56.00
27266;DHT22;14766;51.380;13.762;2024-01-25T14:59:27;11.40;56.10
27266;DHT22;14766;51.380;13.762;2024-01-25T15:01:54;11.30;56.20
27266;DHT22;14766;51.380;13.762;2024-01-25T15:04:23;11.30;56.40
27266;DHT22;14766;51.380;13.762;2024-01-25T15:06:50;11.30;56.40
27266;DHT22;14766;51.380;13.762;2024-01-25T15:09:17;11.20;56.40
27266;DHT22;14766;51.380;13.762;2024-01-25T15:11:44;11.20;56.70
27266;DHT22;14766;51.380;13.762;2024-01-25T15:14:13;11.10;56.70
27266;DHT22;14766;51.380;13.762;2024-01-25T15:16:40;11.10;56.90
27266;DHT22;14766;51.380;13.762;2024-01-25T15:19:07;11.10;57.00
27266;DHT22;14766;51.380;13.762;2024-01-25T15:21:34;11.00;57.30